CheckWX is a tool to help pilots better visualize weather data.  It is not intended as a substitute for an official pre-flight weather briefing.

04:41:42 UTC

KUGN METAR
Waukegan National Airport
Chicago/Waukegan, Illinois, USA
Current

47 mins ago

KUGN 020355Z AUTO 21010KT 10SM CLR 21/12 A2996 RMK AO2 SLP137 T02060122
Observed
Jun-2 @ 03:55 UTC
Wind
  • 210° at 10 KTS
Visibility
Flight Rules
VFR
Cloud Levels
  • Clear skies
Temperature
21°C / 70°F
Dewpoint
12°C / 54°F
Humidity
57%
Altimeter
29.96" Hg
Pressure
1014.52 hPa
Previous

2 hours ago

KUGN 020255Z AUTO 20009KT 10SM CLR 21/12 A2997 RMK AO2 SLP141 T02060117 53003
Observed
Jun-2 @ 02:55 UTC
Wind
  • 200° at 9 KTS
Visibility
Flight Rules
VFR
Cloud Levels
  • Clear skies
Temperature
21°C / 70°F
Dewpoint
12°C / 54°F
Humidity
57%
Altimeter
29.97" Hg
Pressure
1014.92 hPa
Previous

3 hours ago

KUGN 020155Z AUTO 21010KT 10SM CLR 21/11 A2996 RMK AO2 PK WND 20027/0105 SLP140 T02110111
Observed
Jun-2 @ 01:55 UTC
Wind
  • 210° at 10 KTS
Visibility
Flight Rules
VFR
Cloud Levels
  • Clear skies
Temperature
21°C / 70°F
Dewpoint
11°C / 52°F
Humidity
53%
Altimeter
29.96" Hg
Pressure
1014.52 hPa